Time;durP1;ratioP1;P1;durP2;ratioP2;P2;SDS_P1;SDS_P2;PMS_P1;PMS_P2;Temp;Humidity;BMP_temperature;BMP_pressure;BME280_temperature;BME280_humidity;BME280_pressure;Samples;Min_cycle;Max_cycle;Signal;HPM_P1;HPM_P2
2023/10/25 00:00:43;;;;;;;9.10;2.80;;;;;;;11.21;100.00;95653.78;5111538;28;20517;-57
2023/10/25 00:03:12;;;;;;;8.63;2.17;;;;;;;11.24;100.00;95648.97;5111048;28;20209;-58
2023/10/25 00:05:39;;;;;;;4.93;2.20;;;;;;;11.26;100.00;95643.53;5111865;28;20236;-58
2023/10/25 00:08:06;;;;;;;6.47;2.33;;;;;;;11.31;100.00;95657.06;5111232;28;20209;-57
2023/10/25 00:10:33;;;;;;;8.77;3.30;;;;;;;11.29;100.00;95659.06;5111249;28;20204;-57
2023/10/25 00:13:01;;;;;;;11.13;3.03;;;;;;;11.28;100.00;95649.47;5110477;28;20209;-57
2023/10/25 00:15:28;;;;;;;9.67;3.00;;;;;;;11.26;100.00;95651.47;5111860;28;20209;-58
2023/10/25 00:17:54;;;;;;;8.67;2.93;;;;;;;11.24;100.00;95654.28;5111529;28;20205;-57
2023/10/25 00:20:21;;;;;;;7.87;3.03;;;;;;;11.22;100.00;95650.97;5111249;28;20212;-57
2023/10/25 00:22:47;;;;;;;8.93;2.50;;;;;;;11.19;100.00;95642.56;5111231;28;20299;-58
2023/10/25 00:25:14;;;;;;;5.80;2.10;;;;;;;11.21;100.00;95644.03;5110796;28;20239;-58
2023/10/25 00:27:42;;;;;;;7.07;2.20;;;;;;;11.21;100.00;95633.44;5110390;28;20225;-57
2023/10/25 00:30:10;;;;;;;6.63;2.50;;;;;;;11.19;100.00;95640.75;5110828;28;20366;-58
2023/10/25 00:32:36;;;;;;;6.50;1.97;;;;;;;11.22;100.00;95639.56;5111605;28;20205;-58
2023/10/25 00:35:03;;;;;;;6.23;1.90;;;;;;;11.21;100.00;95636.09;5111209;28;20212;-58
2023/10/25 00:37:29;;;;;;;5.60;1.80;;;;;;;11.19;100.00;95626.69;5110957;28;20204;-58
2023/10/25 00:39:56;;;;;;;3.97;1.53;;;;;;;11.14;100.00;95621.91;5111050;28;20220;-57
2023/10/25 00:42:25;;;;;;;4.90;2.00;;;;;;;11.11;100.00;95627.53;5110755;28;20499;-58
2023/10/25 00:44:53;;;;;;;3.73;1.67;;;;;;;11.10;100.00;95630.34;5110105;28;20224;-57
2023/10/25 00:47:19;;;;;;;5.03;1.50;;;;;;;11.05;100.00;95627.41;5110805;28;20224;-57
2023/10/25 00:49:47;;;;;;;6.67;1.30;;;;;;;11.05;100.00;95627.41;5110558;28;20220;-57
2023/10/25 00:52:14;;;;;;;1.83;0.70;;;;;;;11.05;100.00;95632.69;5111395;28;20197;-58
2023/10/25 00:54:40;;;;;;;3.63;1.30;;;;;;;11.04;100.00;95631.88;5110988;28;20209;-57
2023/10/25 00:57:09;;;;;;;4.37;0.80;;;;;;;11.04;100.00;95631.03;5110208;28;20201;-57
2023/10/25 00:59:36;;;;;;;1.87;0.93;;;;;;;11.01;100.00;95626.91;5110733;28;20216;-57
2023/10/25 01:02:05;;;;;;;2.50;1.30;;;;;;;11.03;100.00;95634.66;5093241;28;20215;-58
2023/10/25 01:04:32;;;;;;;3.67;0.70;;;;;;;11.03;100.00;95618.78;5110952;28;20212;-57
2023/10/25 01:06:58;;;;;;;1.87;0.60;;;;;;;11.01;100.00;95621.63;5110126;28;20197;-57
2023/10/25 01:09:27;;;;;;;1.33;0.60;;;;;;;10.96;100.00;95616.84;5111025;28;20212;-57
2023/10/25 01:11:53;;;;;;;4.13;0.80;;;;;;;10.97;100.00;95626.44;5109790;28;20622;-57
2023/10/25 01:14:20;;;;;;;4.00;0.67;;;;;;;11.00;100.00;95619.97;5110124;28;20208;-57
2023/10/25 01:16:47;;;;;;;0.70;0.40;;;;;;;10.99;100.00;95613.03;5114010;28;20209;-57
2023/10/25 01:19:14;;;;;;;2.63;0.60;;;;;;;11.02;100.00;95606.59;5115169;28;20221;-58
2023/10/25 01:21:42;;;;;;;3.83;0.63;;;;;;;11.04;100.00;95604.56;5114600;28;20636;-57
2023/10/25 01:24:10;;;;;;;1.13;0.60;;;;;;;11.03;100.00;95597.63;5113998;28;20850;-58
2023/10/25 01:26:37;;;;;;;2.03;0.60;;;;;;;11.03;100.00;95594.97;5114545;28;20534;-58
2023/10/25 01:29:03;;;;;;;3.03;0.67;;;;;;;11.02;100.00;95598.66;5113654;28;20665;-57
2023/10/25 01:31:30;;;;;;;0.50;0.50;;;;;;;10.99;100.00;95587.41;5114334;28;20638;-57
2023/10/25 01:33:57;;;;;;;1.87;0.53;;;;;;;11.01;100.00;95599.63;5113899;28;20208;-58
2023/10/25 01:36:25;;;;;;;1.13;0.60;;;;;;;10.98;100.00;95593.66;5097062;28;20201;-58
2023/10/25 01:38:52;;;;;;;2.83;0.67;;;;;;;10.97;100.00;95605.28;5114423;28;20197;-57
2023/10/25 01:41:20;;;;;;;2.50;0.70;;;;;;;10.95;100.00;95607.25;5114841;28;20414;-57
2023/10/25 01:43:46;;;;;;;0.17;0.17;;;;;;;10.95;100.00;95601.94;5112953;28;20561;-57
2023/10/25 01:46:13;;;;;;;1.13;0.40;;;;;;;10.97;100.00;95594.69;5114819;28;20533;-57
2023/10/25 01:48:39;;;;;;;0.50;0.50;;;;;;;10.98;100.00;95598.97;5114317;28;20231;-59
2023/10/25 01:51:06;;;;;;;1.43;0.63;;;;;;;10.96;100.00;95587.75;5114735;28;20209;-57
2023/10/25 01:53:34;;;;;;;0.80;0.40;;;;;;;10.93;100.00;95582.78;5130821;28;20227;-57
2023/10/25 01:56:02;;;;;;;1.83;0.47;;;;;;;10.92;100.00;95583.78;5126043;28;20201;-57
2023/10/25 01:58:30;;;;;;;0.40;0.40;;;;;;;10.88;100.00;95574.53;5110057;28;20191;-57
2023/10/25 02:00:56;;;;;;;2.20;0.50;;;;;;;10.88;100.00;95574.53;5132846;28;20286;-57
2023/10/25 02:03:23;;;;;;;1.37;0.50;;;;;;;10.83;100.00;95571.59;5135324;28;20207;-57
2023/10/25 02:05:49;;;;;;;0.33;0.33;;;;;;;10.81;100.00;95563.00;5137308;28;20205;-57
2023/10/25 02:08:16;;;;;;;1.03;0.50;;;;;;;10.82;100.00;95566.47;5137646;28;20213;-57
2023/10/25 02:10:44;;;;;;;1.03;0.47;;;;;;;10.77;100.00;95566.97;5137617;28;20201;-59
2023/10/25 02:13:11;;;;;;;3.03;0.70;;;;;;;10.77;100.00;95555.59;5137157;28;20193;-58
2023/10/25 02:15:38;;;;;;;1.80;0.60;;;;;;;10.68;100.00;95551.31;5136607;28;20197;-58
2023/10/25 02:18:05;;;;;;;2.50;1.07;;;;;;;10.66;100.00;95551.50;5136895;28;20196;-58
2023/10/25 02:20:31;;;;;;;0.83;0.70;;;;;;;10.63;100.00;95553.66;5133806;28;20181;-57
2023/10/25 02:22:58;;;;;;;0.60;0.60;;;;;;;10.60;100.00;95549.50;5137019;28;20177;-58
2023/10/25 02:25:24;;;;;;;5.10;0.97;;;;;;;10.59;100.00;95544.41;5137386;28;20201;-58
2023/10/25 02:27:51;;;;;;;1.33;0.67;;;;;;;10.55;100.00;95546.56;5136935;28;20267;-58
2023/10/25 02:30:19;;;;;;;0.80;0.80;;;;;;;10.55;100.00;95543.09;5138250;28;20191;-58
2023/10/25 02:32:47;;;;;;;2.37;0.87;;;;;;;10.48;100.00;95550.88;5137030;28;20348;-61
2023/10/25 02:35:15;;;;;;;0.97;0.80;;;;;;;10.38;100.00;95551.03;5137797;28;20211;-57
2023/10/25 02:37:42;;;;;;;3.33;1.57;;;;;;;10.39;100.00;95551.88;5132832;28;20228;-58
2023/10/25 02:40:09;;;;;;;0.80;0.80;;;;;;;10.41;100.00;95545.44;5128866;28;20294;-58
2023/10/25 02:42:36;;;;;;;3.80;1.20;;;;;;;10.37;100.00;95544.13;5113930;28;20216;-56
2023/10/25 02:45:04;;;;;;;1.47;1.03;;;;;;;10.30;100.00;95552.91;5113883;28;20324;-58
2023/10/25 02:47:30;;;;;;;1.90;1.10;;;;;;;10.22;100.00;95532.59;5113357;28;20212;-57
2023/10/25 02:49:58;;;;;;;1.50;1.23;;;;;;;10.18;100.00;95538.38;5095529;28;20271;-58
2023/10/25 02:52:25;;;;;;;1.30;1.20;;;;;;;10.16;100.00;95538.56;5113499;28;20201;-58
2023/10/25 02:54:54;;;;;;;3.00;1.37;;;;;;;10.12;100.00;95542.50;5113174;28;21302;-58
2023/10/25 02:57:21;;;;;;;1.70;1.60;;;;;;;10.08;100.00;95542.97;5113303;28;20216;-58
2023/10/25 02:59:47;;;;;;;1.67;1.57;;;;;;;10.04;100.00;95542.50;5112838;28;20193;-58
2023/10/25 03:02:14;;;;;;;1.80;1.47;;;;;;;9.96;100.00;95542.50;5112741;28;20208;-57
2023/10/25 03:04:42;;;;;;;1.83;1.70;;;;;;;9.92;100.00;95547.28;5113008;28;20591;-57
2023/10/25 03:07:09;;;;;;;3.10;1.37;;;;;;;9.88;100.00;95543.31;5112589;28;20645;-58
2023/10/25 03:09:36;;;;;;;1.77;1.67;;;;;;;9.87;100.00;95539.03;5112462;28;20632;-57
2023/10/25 03:12:03;;;;;;;1.23;1.13;;;;;;;9.85;100.00;95533.09;5112568;28;20533;-58
2023/10/25 03:14:29;;;;;;;1.77;1.40;;;;;;;9.85;100.00;95537.53;5112199;28;20235;-58
2023/10/25 03:16:56;;;;;;;3.40;1.27;;;;;;;9.81;100.00;95529.13;5112533;28;20220;-57
2023/10/25 03:19:23;;;;;;;3.53;1.73;;;;;;;9.72;100.00;95526.66;5112568;28;20556;-57
2023/10/25 03:21:53;;;;;;;1.30;1.30;;;;;;;9.67;100.00;95531.63;5112715;28;20205;-57
2023/10/25 03:24:21;;;;;;;2.47;1.20;;;;;;;9.66;100.00;95529.97;5111851;28;20201;-58
2023/10/25 03:26:50;;;;;;;2.10;1.80;;;;;;;9.64;100.00;95521.38;5112751;28;20326;-58
2023/10/25 03:29:16;;;;;;;1.77;1.67;;;;;;;9.60;100.00;95520.06;5112182;28;20229;-57
2023/10/25 03:31:43;;;;;;;3.43;1.60;;;;;;;9.53;100.00;95517.25;5111575;28;20197;-58
2023/10/25 03:34:09;;;;;;;1.73;1.40;;;;;;;9.52;100.00;95515.59;5112438;28;20212;-57
2023/10/25 03:36:37;;;;;;;3.67;1.40;;;;;;;9.53;100.00;95517.25;5112543;28;20412;-58
2023/10/25 03:39:05;;;;;;;3.00;1.63;;;;;;;9.47;100.00;95512.63;5111584;28;20212;-57
2023/10/25 03:41:33;;;;;;;3.07;2.13;;;;;;;9.49;100.00;95506.19;5112097;28;20193;-57
2023/10/25 03:43:59;;;;;;;2.23;1.63;;;;;;;9.45;100.00;95514.63;5111118;28;20235;-59
2023/10/25 03:46:29;;;;;;;1.53;1.50;;;;;;;9.46;100.00;95516.25;5111736;28;21303;-58
2023/10/25 03:48:56;;;;;;;3.03;1.80;;;;;;;9.46;100.00;95510.97;5111725;28;20225;-57
2023/10/25 03:51:22;;;;;;;3.93;2.33;;;;;;;9.39;100.00;95513.44;5111738;28;20201;-57
2023/10/25 03:53:48;;;;;;;2.00;1.90;;;;;;;9.39;100.00;95510.78;5111311;28;20228;-58
2023/10/25 03:56:15;;;;;;;1.30;1.20;;;;;;;9.38;100.00;95511.81;5111908;28;21419;-57
2023/10/25 03:58:43;;;;;;;2.67;1.67;;;;;;;9.39;100.00;95504.69;5111525;28;20221;-57
2023/10/25 04:01:09;;;;;;;2.80;1.43;;;;;;;9.37;100.00;95502.22;5112751;28;20213;-57
2023/10/25 04:03:36;;;;;;;1.70;1.60;;;;;;;9.38;100.00;95509.16;5111288;28;20209;-58
2023/10/25 04:06:04;;;;;;;1.97;1.43;;;;;;;9.40;100.00;95498.44;5111764;28;20257;-58
2023/10/25 04:08:31;;;;;;;2.17;1.30;;;;;;;9.38;100.00;95487.22;5111069;28;20259;-57
2023/10/25 04:10:59;;;;;;;2.13;1.60;;;;;;;9.39;100.00;95496.78;5112090;28;20260;-57
2023/10/25 04:13:28;;;;;;;2.07;1.37;;;;;;;9.42;100.00;95497.28;5109923;28;20212;-57
2023/10/25 04:15:57;;;;;;;2.30;1.50;;;;;;;9.40;100.00;95501.06;5111023;28;20208;-58
2023/10/25 04:18:24;;;;;;;3.23;1.20;;;;;;;9.47;100.00;95502.06;5111846;28;20193;-57
2023/10/25 04:20:50;;;;;;;1.47;1.40;;;;;;;9.48;100.00;95493.16;5112107;28;20197;-57
2023/10/25 04:23:17;;;;;;;1.60;1.50;;;;;;;9.50;100.00;95486.72;5111398;28;20212;-58
2023/10/25 04:25:46;;;;;;;1.80;1.70;;;;;;;9.50;100.00;95491.19;5112188;28;20209;-58
2023/10/25 04:28:13;;;;;;;4.40;3.50;;;;;;;9.50;100.00;95485.91;5111049;28;20208;-58
2023/10/25 04:30:41;;;;;;;2.10;2.00;;;;;;;9.50;100.00;95477.97;5093348;28;20201;-57
2023/10/25 04:33:12;;;;;;;4.53;2.20;;;;;;;9.44;100.00;95481.28;5112064;28;20500;-57
2023/10/25 04:35:41;;;;;;;2.43;1.70;;;;;;;9.47;100.00;95470.41;5112076;28;20213;-57
2023/10/25 04:38:07;;;;;;;2.73;1.60;;;;;;;9.49;100.00;95473.72;5111696;28;20230;-58
2023/10/25 04:40:34;;;;;;;1.90;1.63;;;;;;;9.41;100.00;95476.34;5111409;28;20197;-58
2023/10/25 04:43:01;;;;;;;5.67;2.50;;;;;;;9.31;100.00;95462.50;5110255;28;20211;-58
2023/10/25 04:45:29;;;;;;;3.47;1.87;;;;;;;9.31;100.00;95470.41;5111686;28;20201;-58
2023/10/25 04:47:56;;;;;;;3.00;1.77;;;;;;;9.25;100.00;95457.84;5111683;28;20277;-58
2023/10/25 04:50:24;;;;;;;1.60;1.50;;;;;;;9.25;100.00;95449.94;5114693;28;20228;-56
2023/10/25 04:52:52;;;;;;;1.53;1.43;;;;;;;9.26;100.00;95454.22;5118325;28;20205;-58
2023/10/25 04:55:21;;;;;;;2.60;1.80;;;;;;;9.25;100.00;95439.38;5118417;28;20204;-59
2023/10/25 04:57:49;;;;;;;2.23;1.90;;;;;;;9.27;100.00;95438.25;5117931;28;20276;-57
2023/10/25 05:00:16;;;;;;;1.90;1.80;;;;;;;9.25;100.00;95424.38;5118421;28;20193;-57
2023/10/25 05:02:43;;;;;;;1.90;1.80;;;;;;;9.26;100.00;95422.59;5118029;28;20209;-57
2023/10/25 05:05:09;;;;;;;2.50;1.60;;;;;;;9.22;100.00;95410.72;5118723;28;20208;-57
2023/10/25 05:07:38;;;;;;;3.10;2.80;;;;;;;9.21;100.00;95406.44;5118395;28;20201;-57
2023/10/25 05:10:06;;;;;;;2.27;1.90;;;;;;;9.25;100.00;95408.56;5117977;28;20225;-58
2023/10/25 05:12:37;;;;;;;2.27;2.17;;;;;;;9.28;100.00;95402.16;5117598;28;20204;-58
2023/10/25 05:15:05;;;;;;;2.00;1.90;;;;;;;9.32;100.00;95414.00;5116953;28;20253;-57
2023/10/25 05:17:32;;;;;;;1.87;1.77;;;;;;;9.31;100.00;95401.81;5118293;28;20212;-58
2023/10/25 05:19:59;;;;;;;1.67;1.30;;;;;;;9.28;100.00;95400.31;5118272;28;20629;-58
2023/10/25 05:22:27;;;;;;;3.20;1.37;;;;;;;9.23;100.00;95401.81;5117789;28;20613;-57
2023/10/25 05:24:56;;;;;;;3.90;1.50;;;;;;;9.20;100.00;95399.50;5118648;28;20725;-57
2023/10/25 05:27:23;;;;;;;2.07;1.43;;;;;;;9.21;100.00;95395.91;5119959;28;20406;-57
2023/10/25 05:29:50;;;;;;;4.70;1.80;;;;;;;9.19;100.00;95401.31;5118116;28;20224;-57
2023/10/25 05:32:21;;;;;;;2.00;1.53;;;;;;;9.12;100.00;95402.13;5120378;28;20201;-58
2023/10/25 05:34:49;;;;;;;4.50;1.73;;;;;;;9.10;100.00;95406.75;5101143;28;20211;-58
2023/10/25 05:37:16;;;;;;;2.27;1.60;;;;;;;9.08;100.00;95401.63;5118560;28;20246;-58
2023/10/25 05:39:43;;;;;;;3.37;1.43;;;;;;;9.08;100.00;95416.63;5117478;28;20626;-60
2023/10/25 05:42:19;;;;;;;1.73;1.63;;;;;;;9.02;100.00;95410.22;5117758;28;20200;-57
2023/10/25 05:44:46;;;;;;;1.63;1.53;;;;;;;9.03;100.00;95414.50;5116210;28;20297;-58
2023/10/25 05:47:12;;;;;;;5.03;2.27;;;;;;;9.02;100.00;95414.66;5117131;28;20606;-57
2023/10/25 05:49:40;;;;;;;2.27;1.80;;;;;;;9.00;100.00;95406.91;5117352;28;20217;-57
2023/10/25 05:52:10;;;;;;;2.07;1.97;;;;;;;8.95;100.00;95415.31;5117493;28;20446;-57
2023/10/25 05:54:37;;;;;;;2.90;2.10;;;;;;;8.95;100.00;95406.59;5117638;28;20270;-57
2023/10/25 05:57:04;;;;;;;2.60;2.40;;;;;;;8.95;100.00;95402.13;5118145;28;20617;-57
2023/10/25 05:59:34;;;;;;;2.70;2.40;;;;;;;8.94;100.00;95408.38;5116743;28;20204;-57
2023/10/25 06:02:07;;;;;;;3.83;2.80;;;;;;;8.94;100.00;95404.91;5114794;28;20341;-58
2023/10/25 06:04:34;;;;;;;5.77;2.73;;;;;;;8.89;100.00;95413.31;5117682;28;20205;-61
2023/10/25 06:07:01;;;;;;;2.60;2.40;;;;;;;8.95;100.00;95406.59;5117745;28;20197;-58
2023/10/25 06:09:28;;;;;;;3.00;2.70;;;;;;;8.93;100.00;95398.00;5118055;28;20660;-58
2023/10/25 06:11:55;;;;;;;7.07;3.20;;;;;;;8.98;100.00;95400.97;5114952;28;20199;-57
2023/10/25 06:14:22;;;;;;;3.77;3.03;;;;;;;8.97;100.00;95401.97;5112681;28;20205;-58
2023/10/25 06:16:51;;;;;;;3.43;2.80;;;;;;;8.91;100.00;95399.97;5113195;28;20197;-58
2023/10/25 06:19:18;;;;;;;3.93;3.73;;;;;;;8.90;100.00;95393.88;5113662;28;20205;-57
2023/10/25 06:21:44;;;;;;;4.07;3.60;;;;;;;8.93;100.00;95393.56;5113616;28;20615;-57
2023/10/25 06:24:12;;;;;;;4.00;3.70;;;;;;;8.87;100.00;95402.13;5108600;28;20252;-57
2023/10/25 06:26:38;;;;;;;4.33;3.93;;;;;;;8.90;100.00;95404.44;5113911;28;20205;-57
2023/10/25 06:29:05;;;;;;;4.70;3.57;;;;;;;8.97;100.00;95400.16;5113409;28;20547;-57
2023/10/25 06:31:32;;;;;;;4.07;3.40;;;;;;;9.08;100.00;95401.63;5113196;28;20201;-56
2023/10/25 06:34:15;;;;;;;5.10;3.63;;;;;;;9.09;100.00;95400.66;5109406;28;20228;-56
2023/10/25 06:36:43;;;;;;;6.13;3.40;;;;;;;9.11;100.00;95403.13;5114115;28;20617;-56
2023/10/25 06:39:10;;;;;;;3.60;3.40;;;;;;;9.25;100.00;95403.28;5113391;28;20201;-57
2023/10/25 06:41:37;;;;;;;4.13;3.73;;;;;;;9.37;100.00;95399.34;5114666;28;20209;-56
2023/10/25 06:44:04;;;;;;;5.17;3.80;;;;;;;9.48;100.00;95403.47;5112866;28;20229;-56
2023/10/25 06:46:31;;;;;;;3.77;3.50;;;;;;;9.58;100.00;95411.19;5112628;28;20205;-57
2023/10/25 06:48:59;;;;;;;3.60;3.40;;;;;;;9.71;100.00;95399.13;5113942;28;20209;-57
2023/10/25 06:51:27;;;;;;;4.50;3.60;;;;;;;9.77;100.00;95393.19;5079433;28;20205;-57
2023/10/25 06:53:54;;;;;;;3.43;3.23;;;;;;;9.92;100.00;95396.75;5112983;28;20232;-57
2023/10/25 06:56:22;;;;;;;3.50;3.17;;;;;;;9.99;100.00;95397.72;5114111;28;20212;-57
2023/10/25 06:58:49;;;;;;;4.97;3.53;;;;;;;10.08;100.00;95395.91;5115177;28;20209;-57
2023/10/25 07:01:20;;;;;;;3.90;3.60;;;;;;;10.17;100.00;95396.72;5113447;28;20201;-57
2023/10/25 07:03:49;;;;;;;4.13;3.27;;;;;;;10.28;100.00;95391.88;5114218;28;20189;-57
2023/10/25 07:06:18;;;;;;;3.87;3.47;;;;;;;10.36;100.00;95391.84;5116610;28;20205;-57
2023/10/25 07:08:48;;;;;;;4.17;3.80;;;;;;;10.49;100.00;95383.34;5121138;28;20659;-57
2023/10/25 07:11:14;;;;;;;3.60;3.33;;;;;;;10.57;100.00;95378.03;5120505;28;20591;-57
2023/10/25 07:13:41;;;;;;;3.73;3.23;;;;;;;10.69;100.00;95368.72;5117173;28;20199;-57
2023/10/25 07:16:07;;;;;;;8.67;4.47;;;;;;;10.79;100.00;95379.91;5117968;28;20224;-58
2023/10/25 07:18:34;;;;;;;5.20;4.70;;;;;;;10.79;100.00;95373.78;5120022;28;20207;-57
2023/10/25 07:21:01;;;;;;;4.77;4.30;;;;;;;10.93;100.00;95371.22;5116484;28;20561;-57
2023/10/25 07:23:27;;;;;;;4.83;4.47;;;;;;;11.02;100.00;95364.03;5116903;28;20280;-57
2023/10/25 07:25:59;;;;;;;5.80;4.27;;;;;;;11.12;100.00;95369.09;5116882;28;20209;-62
2023/10/25 07:28:28;;;;;;;4.47;4.17;;;;;;;11.20;100.00;95369.00;5117433;28;20697;-58
2023/10/25 07:30:54;;;;;;;4.67;4.33;;;;;;;11.32;100.00;95367.59;5115503;28;20544;-58
2023/10/25 07:33:22;;;;;;;5.53;4.80;;;;;;;11.39;100.00;95368.53;5112059;28;20219;-57
2023/10/25 07:35:48;;;;;;;4.30;3.90;;;;;;;11.46;100.00;95362.34;5112829;28;20197;-57
2023/10/25 07:38:15;;;;;;;5.07;4.70;;;;;;;11.46;100.00;95357.03;5110820;28;20201;-57
2023/10/25 07:40:42;;;;;;;4.83;4.43;;;;;;;11.53;100.00;95365.09;5109954;28;20625;-57
2023/10/25 07:43:10;;;;;;;4.50;4.20;;;;;;;11.60;100.00;95370.47;5111374;28;20231;-58
2023/10/25 07:45:37;;;;;;;5.00;4.70;;;;;;;11.64;100.00;95369.94;5111941;28;20205;-57
2023/10/25 07:48:04;;;;;;;5.43;4.43;;;;;;;11.66;100.00;95362.63;5111922;28;20197;-57
2023/10/25 07:50:31;;;;;;;4.67;4.40;;;;;;;11.71;100.00;95362.13;5111974;28;20225;-57
2023/10/25 07:52:58;;;;;;;5.00;4.60;;;;;;;11.81;100.00;95355.56;5114907;28;20197;-57
2023/10/25 07:55:25;;;;;;;4.53;4.23;;;;;;;11.92;100.00;95355.13;5114953;28;20496;-57
2023/10/25 07:57:54;;;;;;;4.73;4.30;;;;;;;12.05;100.00;95349.16;5114439;28;20224;-57
2023/10/25 08:00:22;;;;;;;4.40;4.10;;;;;;;12.14;100.00;95355.19;5121869;28;20220;-57
2023/10/25 08:02:48;;;;;;;4.30;3.90;;;;;;;12.25;100.00;95352.09;5111722;28;20205;-57
2023/10/25 08:05:15;;;;;;;4.10;3.70;;;;;;;12.30;100.00;95350.50;5111187;28;20213;-57
2023/10/25 08:07:42;;;;;;;4.10;3.63;;;;;;;12.33;100.00;95351.97;5111731;28;20216;-57
2023/10/25 08:10:10;;;;;;;3.40;3.10;;;;;;;12.29;100.00;95340.13;5111232;28;20231;-57
2023/10/25 08:12:36;;;;;;;3.57;3.37;;;;;;;12.41;100.00;95341.25;5111344;28;20201;-57
2023/10/25 08:15:04;;;;;;;3.50;3.20;;;;;;;12.48;100.00;95326.25;5108513;28;20201;-57
2023/10/25 08:17:32;;;;;;;3.20;3.00;;;;;;;12.55;100.00;95332.44;5108477;28;20629;-58
2023/10/25 08:19:59;;;;;;;2.87;2.67;;;;;;;12.63;100.00;95334.19;5110709;28;20637;-57
2023/10/25 08:22:25;;;;;;;2.73;2.53;;;;;;;12.71;100.00;95332.25;5109090;28;20651;-57
2023/10/25 08:24:52;;;;;;;2.73;2.50;;;;;;;12.74;100.00;95337.16;5108404;28;20205;-56
2023/10/25 08:27:18;;;;;;;2.13;2.03;;;;;;;12.78;100.00;95330.47;5109577;28;20205;-57
2023/10/25 08:29:45;;;;;;;3.03;2.30;;;;;;;12.81;100.00;95322.13;5109255;28;20597;-57
2023/10/25 08:32:12;;;;;;;3.53;2.47;;;;;;;12.86;100.00;95325.03;5110541;28;20216;-57
2023/10/25 08:34:44;;;;;;;2.97;2.57;;;;;;;12.87;100.00;95328.50;5110420;28;20205;-57
2023/10/25 08:37:11;;;;;;;3.00;2.80;;;;;;;12.92;100.00;95323.47;5110620;28;20212;-57
2023/10/25 08:39:37;;;;;;;4.00;2.37;;;;;;;12.87;100.00;95316.06;5110279;28;20189;-57
2023/10/25 08:42:04;;;;;;;2.67;2.47;;;;;;;12.88;100.00;95324.84;5111687;28;20212;-57
2023/10/25 08:44:32;;;;;;;3.30;3.00;;;;;;;12.94;100.00;95329.41;5108938;28;20700;-58
2023/10/25 08:46:58;;;;;;;2.70;2.50;;;;;;;12.94;100.00;95326.75;5110516;28;20280;-57
2023/10/25 08:49:26;;;;;;;3.60;3.10;;;;;;;12.92;100.00;95329.59;5110411;28;20204;-57
2023/10/25 08:51:54;;;;;;;3.40;3.10;;;;;;;12.89;100.00;95329.97;5111027;28;20532;-57
2023/10/25 08:54:24;;;;;;;3.10;2.90;;;;;;;12.90;100.00;95328.13;5110871;28;20220;-57
2023/10/25 08:56:50;;;;;;;4.00;3.60;;;;;;;12.83;100.00;95325.41;5110060;28;20649;-57
2023/10/25 08:59:18;;;;;;;3.10;2.90;;;;;;;12.93;100.00;95323.25;5110410;28;20213;-57
2023/10/25 09:01:44;;;;;;;3.90;3.20;;;;;;;12.97;100.00;95321.88;5110636;28;20630;-57
2023/10/25 09:04:11;;;;;;;3.60;3.00;;;;;;;13.04;100.00;95311.31;5111111;28;20196;-57
2023/10/25 09:06:38;;;;;;;3.00;2.80;;;;;;;13.06;100.00;95319.09;5111892;28;20205;-57
2023/10/25 09:09:07;;;;;;;3.33;3.00;;;;;;;13.12;100.00;95313.06;5110905;28;20644;-57
2023/10/25 09:11:41;;;;;;;3.40;3.20;;;;;;;13.35;100.00;95303.06;5127137;28;20640;-56
2023/10/25 09:14:10;;;;;;;3.93;3.17;;;;;;;13.48;100.00;95305.81;5107634;28;20263;-57
2023/10/25 09:16:39;;;;;;;6.40;3.10;;;;;;;13.56;100.00;95288.91;5127184;28;20198;-57
2023/10/25 09:19:06;;;;;;;2.90;2.70;;;;;;;13.59;100.00;95297.31;5122421;28;20200;-57
2023/10/25 09:21:32;;;;;;;6.78;2.40;;;;;;;13.80;100.00;95285.78;5111232;28;20221;-57
2023/10/25 09:24:02;;;;;;;2.40;2.20;;;;;;;13.78;100.00;95287.81;5111103;28;20205;-58
2023/10/25 09:26:35;;;;;;;2.50;2.40;;;;;;;13.74;100.00;95295.38;5110499;28;20601;-56
2023/10/25 09:29:03;;;;;;;2.92;2.55;;;;;;;13.78;100.00;95279.84;5108973;28;20197;-57
2023/10/25 09:31:31;;;;;;;3.70;2.45;;;;;;;13.87;100.00;95282.16;5110847;28;20229;-56
2023/10/25 09:33:58;;;;;;;3.70;2.57;;;;;;;13.70;100.00;95286.16;5110569;28;20193;-57
2023/10/25 09:36:25;;;;;;;2.22;2.13;;;;;;;13.66;100.00;95287.53;5111053;28;20201;-56
2023/10/25 09:38:53;;;;;;;4.50;2.50;;;;;;;13.73;100.00;95291.06;5112870;28;20209;-57
2023/10/25 09:41:20;;;;;;;2.75;2.30;;;;;;;13.77;100.00;95287.00;5113610;28;20235;-57
2023/10/25 09:43:49;;;;;;;2.95;2.55;;;;;;;13.78;100.00;95272.69;5112637;28;20887;-57
2023/10/25 09:46:18;;;;;;;2.50;2.30;;;;;;;13.77;100.00;95281.69;5114838;28;20208;-57
2023/10/25 09:48:56;;;;;;;1.85;1.80;;;;;;;13.80;100.00;95278.63;5113852;28;20219;-57
2023/10/25 09:51:32;;;;;;;2.28;2.10;;;;;;;13.93;100.00;95285.84;5113797;28;20231;-57
2023/10/25 09:54:01;;;;;;;2.90;2.25;;;;;;;14.08;100.00;95273.25;5113501;28;20595;-57
2023/10/25 09:56:28;;;;;;;2.47;2.38;;;;;;;14.20;100.00;95277.00;5114388;28;20209;-57
2023/10/25 09:58:57;;;;;;;2.60;2.40;;;;;;;14.23;100.00;95265.13;5112997;28;20197;-57
2023/10/25 10:01:24;;;;;;;3.17;2.50;;;;;;;14.18;100.00;95254.25;5114633;28;20200;-56
2023/10/25 10:03:55;;;;;;;2.53;2.42;;;;;;;14.26;100.00;95254.91;5113850;28;20201;-56
2023/10/25 10:06:30;;;;;;;2.70;2.38;;;;;;;14.36;100.00;95241.28;5114840;28;20197;-56
2023/10/25 10:09:03;;;;;;;3.47;2.20;;;;;;;14.64;100.00;95247.28;5113967;28;20213;-57
2023/10/25 10:11:37;;;;;;;2.80;2.53;;;;;;;14.83;100.00;95241.19;5114531;28;20219;-57
2023/10/25 10:14:28;;;;;;;2.22;2.13;;;;;;;14.75;100.00;95236.03;5113519;28;20201;-57
2023/10/25 10:17:00;;;;;;;2.42;2.25;;;;;;;14.80;100.00;95243.41;5114020;28;20197;-58
2023/10/25 10:19:26;;;;;;;3.20;2.90;;;;;;;14.81;100.00;95235.22;5111352;28;20199;-57
2023/10/25 10:22:04;;;;;;;2.67;2.40;;;;;;;14.80;100.00;95244.25;5113535;28;20204;-56
2023/10/25 10:24:44;;;;;;;1.60;1.60;;;;;;;14.90;100.00;95254.47;5112427;28;20201;-56
2023/10/25 10:27:12;;;;;;;1.77;1.60;;;;;;;14.83;100.00;95243.00;5113133;28;20216;-56
2023/10/25 10:29:43;;;;;;;1.70;1.40;;;;;;;14.76;100.00;95237.69;5113614;28;20205;-56
2023/10/25 10:32:09;;;;;;;1.80;1.45;;;;;;;14.73;100.00;95239.94;5114027;28;20665;-58
2023/10/25 10:34:46;;;;;;;2.25;1.20;;;;;;;14.86;100.00;95251.41;5113431;28;20201;-58
2023/10/25 10:37:14;;;;;;;1.67;1.58;;;;;;;14.88;100.00;95233.38;5113877;28;20197;-58
2023/10/25 10:40:14;;;;;;;1.13;1.13;;;;;;;15.67;100.00;95244.00;5112699;28;20212;-59
2023/10/25 10:42:40;;;;;;;0.90;0.90;;;;;;;16.84;100.00;95223.22;5114383;28;20201;-57
2023/10/25 10:45:13;;;;;;;0.52;0.50;;;;;;;17.29;100.00;95209.69;5117752;28;20500;-59
2023/10/25 10:47:43;;;;;;;0.47;0.47;;;;;;;17.38;100.00;95201.19;5123023;28;20197;-58
2023/10/25 10:50:11;;;;;;;1.50;0.60;;;;;;;17.27;100.00;95193.06;5124394;28;20300;-58
2023/10/25 10:52:39;;;;;;;1.90;0.90;;;;;;;17.17;100.00;95185.56;5115416;28;20208;-59
2023/10/25 10:55:07;;;;;;;2.08;0.95;;;;;;;16.96;100.00;95183.28;5113492;28;20209;-60
2023/10/25 10:57:33;;;;;;;0.80;0.80;;;;;;;17.28;100.00;95174.16;5113031;28;20212;-57
2023/10/25 11:00:01;;;;;;;1.13;0.40;;;;;;;18.25;98.22;95167.09;5112680;28;20197;-57
2023/10/25 11:02:29;;;;;;;1.13;0.50;;;;;;;19.21;90.87;95170.41;5113024;28;20205;-57
2023/10/25 11:04:55;;;;;;;1.85;0.55;;;;;;;20.12;84.14;95166.28;5112145;28;20641;-58
2023/10/25 11:07:22;;;;;;;0.50;0.50;;;;;;;20.56;81.80;95157.47;5111086;28;20194;-57
2023/10/25 11:09:48;;;;;;;0.40;0.40;;;;;;;20.55;80.80;95155.03;5112677;28;20209;-57
2023/10/25 11:12:15;;;;;;;0.63;0.40;;;;;;;20.99;76.23;95145.31;5110846;28;20917;-57
2023/10/25 11:14:42;;;;;;;0.22;0.20;;;;;;;21.34;76.53;95145.91;5111995;28;20205;-58
2023/10/25 11:17:09;;;;;;;0.50;0.50;;;;;;;21.47;71.01;95125.94;5111311;28;20633;-58
2023/10/25 11:19:37;;;;;;;1.65;0.90;;;;;;;21.84;71.75;95121.59;5111983;28;20216;-59
2023/10/25 11:22:03;;;;;;;0.82;0.63;;;;;;;21.19;73.91;95119.59;5112413;28;20193;-59
2023/10/25 11:24:30;;;;;;;0.80;0.80;;;;;;;20.75;74.57;95118.63;5111718;28;20205;-59
2023/10/25 11:26:57;;;;;;;0.40;0.40;;;;;;;20.32;77.31;95107.63;5110092;28;20280;-60
2023/10/25 11:29:24;;;;;;;0.88;0.32;;;;;;;19.50;77.85;95101.66;5111661;28;20220;-58
2023/10/25 11:31:52;;;;;;;0.50;0.50;;;;;;;18.51;78.64;95099.88;5111515;28;20224;-57